Time;durP1;ratioP1;P1;durP2;ratioP2;P2;SDS_P1;SDS_P2;PMS_P1;PMS_P2;Temp;Humidity;BMP_temperature;BMP_pressure;BME280_temperature;BME280_humidity;BME280_pressure;Samples;Min_cycle;Max_cycle;Signal;HPM_P1;HPM_P2
2022/11/15 00:00:14;;;;;;;;;;;;;;;-1.80;53.02;99870.72;5035010;28;19936;-82
2022/11/15 00:02:59;;;;;;;;;;;;;;;-1.75;53.16;99873.75;5034641;28;20322;-81
2022/11/15 00:05:45;;;;;;;;;;;;;;;-1.73;53.40;99872.78;5034407;28;19941;-82
2022/11/15 00:08:31;;;;;;;;;;;;;;;-1.71;53.36;99870.81;5034755;28;19929;-83
2022/11/15 00:11:16;;;;;;;;;;;;;;;-1.72;53.33;99871.78;5035144;28;20018;-82
2022/11/15 00:14:03;;;;;;;;;;;;;;;-1.71;53.44;99866.34;5034972;28;19929;-82
2022/11/15 00:16:48;;;;;;;;;;;;;;;-1.69;53.21;99864.41;5016630;28;19929;-82
2022/11/15 00:19:33;;;;;;;;;;;;;;;-1.68;53.62;99857.28;5034678;28;19975;-81
2022/11/15 00:22:19;;;;;;;;;;;;;;;-1.70;53.49;99862.72;5034619;28;20562;-82
2022/11/15 00:25:05;;;;;;;;;;;;;;;-1.78;53.93;99863.44;5034696;28;20404;-81
2022/11/15 00:27:51;;;;;;;;;;;;;;;-1.80;53.92;99875.16;5033797;28;19940;-81
2022/11/15 00:30:37;;;;;;;;;;;;;;;-1.86;54.17;99859.88;5033684;28;20355;-81
2022/11/15 00:33:22;;;;;;;;;;;;;;;-1.89;54.16;99845.09;5019004;28;19929;-82
2022/11/15 00:36:11;;;;;;;;;;;;;;;-1.88;53.61;99854.69;5033696;28;20302;-81
2022/11/15 00:38:57;;;;;;;;;;;;;;;-1.95;53.33;99848.31;5019188;28;19984;-80
2022/11/15 00:41:42;;;;;;;;;;;;;;;-2.01;53.10;99851.53;5033414;28;19936;-82
2022/11/15 00:44:28;;;;;;;;;;;;;;;-1.99;53.28;99845.13;5033680;28;20314;-81
2022/11/15 00:47:13;;;;;;;;;;;;;;;-2.00;53.77;99834.69;5034137;28;20023;-82
2022/11/15 00:49:58;;;;;;;;;;;;;;;-2.01;53.82;99830.38;5034623;28;19929;-82
2022/11/15 00:52:43;;;;;;;;;;;;;;;-2.02;53.96;99831.38;5034110;28;19929;-82
2022/11/15 00:55:28;;;;;;;;;;;;;;;-2.00;54.21;99832.03;5018441;28;20071;-81
2022/11/15 00:58:14;;;;;;;;;;;;;;;-2.02;53.82;99824.25;5033233;28;19929;-81
2022/11/15 01:01:12;;;;;;;;;;;;;;;-2.06;53.78;99824.69;5033282;28;19951;-81
2022/11/15 01:03:57;;;;;;;;;;;;;;;-2.09;53.61;99838.19;5033603;28;19967;-82
2022/11/15 01:06:45;;;;;;;;;;;;;;;-2.09;53.86;99827.63;5033018;28;19983;-82
2022/11/15 01:09:31;;;;;;;;;;;;;;;-2.10;53.68;99821.50;5031815;28;19936;-81
2022/11/15 01:12:16;;;;;;;;;;;;;;;-2.08;53.79;99822.16;5033851;28;19936;-81
2022/11/15 01:15:02;;;;;;;;;;;;;;;-2.10;53.49;99823.28;5033960;28;19936;-81
2022/11/15 01:17:48;;;;;;;;;;;;;;;-2.15;53.75;99829.03;5033179;28;20051;-82
2022/11/15 01:20:33;;;;;;;;;;;;;;;-2.13;53.53;99831.50;5032660;28;19929;-81
2022/11/15 01:23:26;;;;;;;;;;;;;;;-2.13;53.59;99823.59;5015458;28;19929;-81
2022/11/15 01:26:13;;;;;;;;;;;;;;;-2.14;53.69;99812.19;5033807;28;20342;-82
2022/11/15 01:28:59;;;;;;;;;;;;;;;-2.15;53.64;99799.09;5018050;28;19929;-80
2022/11/15 01:31:44;;;;;;;;;;;;;;;-2.16;53.82;99805.34;5004262;28;19936;-83
2022/11/15 01:34:30;;;;;;;;;;;;;;;-2.17;53.91;99806.34;5032829;28;20133;-82
2022/11/15 01:37:17;;;;;;;;;;;;;;;-2.21;54.06;99803.13;5015073;28;19951;-82
2022/11/15 01:40:03;;;;;;;;;;;;;;;-2.20;54.15;99802.19;5033428;28;19929;-81
2022/11/15 01:42:49;;;;;;;;;;;;;;;-2.19;54.18;99793.25;5033457;28;19952;-82
2022/11/15 01:45:34;;;;;;;;;;;;;;;-2.26;54.41;99790.34;5033028;28;19936;-82
2022/11/15 01:48:20;;;;;;;;;;;;;;;-2.26;54.84;99797.44;5033055;28;19953;-81
2022/11/15 01:51:07;;;;;;;;;;;;;;;-2.29;54.70;99795.09;5015391;28;19940;-82
2022/11/15 01:53:53;;;;;;;;;;;;;;;-2.33;55.25;99802.50;5018316;28;19929;-80
2022/11/15 01:56:41;;;;;;;;;;;;;;;-2.36;55.71;99800.09;5032722;28;20276;-82
2022/11/15 01:59:26;;;;;;;;;;;;;;;-2.34;55.95;99798.16;5016632;28;20333;-82
2022/11/15 02:02:11;;;;;;;;;;;;;;;-2.34;56.02;99803.44;5013381;28;19936;-81
2022/11/15 02:04:56;;;;;;;;;;;;;;;-2.33;56.17;99805.13;5030718;28;19983;-81
2022/11/15 02:07:41;;;;;;;;;;;;;;;-2.34;56.46;99803.44;5028608;28;20410;-80
2022/11/15 02:10:27;;;;;;;;;;;;;;;-2.34;56.47;99806.09;5011233;28;21275;-81
2022/11/15 02:13:13;;;;;;;;;;;;;;;-2.35;56.67;99799.16;5014947;28;19929;-80
2022/11/15 02:16:05;;;;;;;;;;;;;;;-2.33;56.39;99797.19;5032640;28;19929;-81
2022/11/15 02:19:13;;;;;;;;;;;;;;;-2.33;56.56;99793.69;5032728;28;19943;-83
2022/11/15 02:21:59;;;;;;;;;;;;;;;-2.39;56.62;99795.09;5017845;28;19959;-80
2022/11/15 02:24:49;;;;;;;;;;;;;;;-2.42;56.68;99798.88;5032445;28;20039;-81
2022/11/15 02:27:38;;;;;;;;;;;;;;;-2.40;56.94;99796.09;5032978;28;19933;-82
2022/11/15 02:30:47;;;;;;;;;;;;;;;-2.39;56.81;99784.53;5032457;28;20003;-82
2022/11/15 02:33:32;;;;;;;;;;;;;;;-2.39;56.85;99781.88;5032535;28;20351;-81
2022/11/15 02:36:22;;;;;;;;;;;;;;;-2.39;56.97;99776.59;5032518;28;20437;-81
2022/11/15 02:39:11;;;;;;;;;;;;;;;-2.46;57.06;99763.09;5017697;28;19929;-81
2022/11/15 02:41:58;;;;;;;;;;;;;;;-2.49;57.50;99768.69;5017215;28;19929;-80
2022/11/15 02:44:44;;;;;;;;;;;;;;;-2.50;57.59;99768.84;5016687;28;19929;-81
2022/11/15 02:47:30;;;;;;;;;;;;;;;-2.53;57.58;99777.91;5014894;28;19972;-80
2022/11/15 02:50:19;;;;;;;;;;;;;;;-2.51;57.83;99775.09;5015536;28;19965;-81
2022/11/15 02:53:04;;;;;;;;;;;;;;;-2.51;57.67;99772.44;5008687;28;19964;-81
2022/11/15 02:55:50;;;;;;;;;;;;;;;-2.55;57.30;99768.44;5006922;28;19929;-80
2022/11/15 02:58:35;;;;;;;;;;;;;;;-2.54;57.28;99770.09;5030876;28;19935;-79
2022/11/15 03:01:37;;;;;;;;;;;;;;;-2.56;57.18;99754.38;5030180;28;19936;-81
2022/11/15 03:04:24;;;;;;;;;;;;;;;-2.56;57.30;99758.81;5004878;28;19968;-83
2022/11/15 03:07:18;;;;;;;;;;;;;;;-2.62;57.08;99755.78;5016701;28;19929;-80
2022/11/15 03:10:10;;;;;;;;;;;;;;;-2.66;57.20;99746.47;5016771;28;19956;-81
2022/11/15 03:12:56;;;;;;;;;;;;;;;-2.67;57.19;99758.00;5031200;28;19929;-81
2022/11/15 03:16:03;;;;;;;;;;;;;;;-2.68;57.38;99747.59;5016606;28;19936;-82
2022/11/15 03:18:50;;;;;;;;;;;;;;;-2.68;57.52;99755.53;5031551;28;20064;-81
2022/11/15 03:21:35;;;;;;;;;;;;;;;-2.67;57.78;99752.72;5016449;28;19929;-81
2022/11/15 03:24:20;;;;;;;;;;;;;;;-2.65;58.04;99757.88;5016335;28;19929;-80
2022/11/15 03:27:11;;;;;;;;;;;;;;;-2.64;57.80;99747.16;5017554;28;19937;-81
2022/11/15 03:30:02;;;;;;;;;;;;;;;-2.63;57.86;99748.00;5016388;28;19980;-82
2022/11/15 03:32:50;;;;;;;;;;;;;;;-2.68;57.80;99742.31;5015715;28;19929;-81
2022/11/15 03:35:37;;;;;;;;;;;;;;;-2.71;57.87;99740.78;5030751;28;20310;-81
2022/11/15 03:38:23;;;;;;;;;;;;;;;-2.69;57.89;99741.44;5031603;28;20295;-81
2022/11/15 03:41:13;;;;;;;;;;;;;;;-2.72;58.15;99747.03;5031949;28;20280;-81
2022/11/15 03:44:10;;;;;;;;;;;;;;;-2.74;58.25;99746.31;5017915;28;20355;-81
2022/11/15 03:46:58;;;;;;;;;;;;;;;-2.75;58.32;99739.38;5031268;28;19935;-79
2022/11/15 03:49:49;;;;;;;;;;;;;;;-2.71;58.54;99743.44;5023140;28;20350;-81
2022/11/15 03:52:35;;;;;;;;;;;;;;;-2.75;58.24;99744.66;5018061;28;19936;-82
2022/11/15 03:55:21;;;;;;;;;;;;;;;-2.75;58.15;99736.75;5008771;28;19929;-82
2022/11/15 03:58:06;;;;;;;;;;;;;;;-2.73;58.25;99739.25;5029119;28;19967;-84
2022/11/15 04:00:52;;;;;;;;;;;;;;;-2.74;58.41;99732.28;5016245;28;19929;-81
2022/11/15 04:03:37;;;;;;;;;;;;;;;-2.71;58.32;99732.84;5031455;28;19982;-82
2022/11/15 04:06:24;;;;;;;;;;;;;;;-2.67;58.43;99736.88;5031479;28;20083;-82
2022/11/15 04:09:10;;;;;;;;;;;;;;;-2.69;57.81;99735.34;5020620;28;19983;-81
2022/11/15 04:11:56;;;;;;;;;;;;;;;-2.74;58.05;99729.66;5017331;28;20463;-82
2022/11/15 04:15:06;;;;;;;;;;;;;;;-2.75;57.95;99735.91;5018772;28;19944;-80
2022/11/15 04:17:48;;;;;;;;;;;;;;;-2.73;58.33;99734.81;5025207;28;19987;-82
2022/11/15 04:24:11;;;;;;;;;;;;;;;-2.73;58.34;99732.16;5016659;28;19936;-83
2022/11/15 04:26:52;;;;;;;;;;;;;;;-2.74;58.26;99737.56;5011005;28;19967;-81
2022/11/15 04:29:38;;;;;;;;;;;;;;;-2.76;58.28;99732.44;5022700;28;19936;-81
2022/11/15 04:32:24;;;;;;;;;;;;;;;-2.74;58.21;99727.00;5017347;28;19936;-81
2022/11/15 04:35:09;;;;;;;;;;;;;;;-2.76;58.21;99721.88;5010460;28;20084;-82
2022/11/15 04:37:56;;;;;;;;;;;;;;;-2.76;58.10;99724.53;5028994;28;19929;-82
2022/11/15 04:40:41;;;;;;;;;;;;;;;-2.76;58.22;99713.09;5031171;28;19948;-81
2022/11/15 04:43:27;;;;;;;;;;;;;;;-2.75;58.12;99717.41;5030567;28;20039;-81
2022/11/15 04:46:13;;;;;;;;;;;;;;;-2.75;58.05;99712.97;5002315;28;20027;-82
2022/11/15 04:48:59;;;;;;;;;;;;;;;-2.76;57.84;99708.66;5015749;28;19941;-81
2022/11/15 04:51:44;;;;;;;;;;;;;;;-2.76;57.25;99703.38;5027532;28;19936;-82
2022/11/15 04:54:30;;;;;;;;;;;;;;;-2.76;57.51;99702.53;5021689;28;19975;-81
2022/11/15 04:57:16;;;;;;;;;;;;;;;-2.76;57.29;99702.53;5016305;28;20023;-84
2022/11/15 05:00:03;;;;;;;;;;;;;;;-2.77;57.71;99701.69;5002104;28;20312;-83
2022/11/15 05:05:52;;;;;;;;;;;;;;;-2.69;58.02;99698.34;5012142;28;19941;-83
2022/11/15 05:08:37;;;;;;;;;;;;;;;-2.70;57.68;99697.50;5023637;28;19940;-82
2022/11/15 05:11:23;;;;;;;;;;;;;;;-2.72;57.69;99699.47;5023612;28;19951;-83
2022/11/15 05:14:09;;;;;;;;;;;;;;;-2.71;57.61;99692.38;5024903;28;19956;-83
2022/11/15 05:16:54;;;;;;;;;;;;;;;-2.74;57.85;99698.75;5028985;28;19964;-82
2022/11/15 05:19:40;;;;;;;;;;;;;;;-2.74;57.75;99693.47;5013893;28;19937;-85
2022/11/15 05:22:25;;;;;;;;;;;;;;;-2.77;57.52;99693.78;5041561;28;20065;-82
2022/11/15 05:25:11;;;;;;;;;;;;;;;-2.79;57.91;99698.34;5007888;28;19928;-82
2022/11/15 05:27:56;;;;;;;;;;;;;;;-2.82;57.88;99698.66;5053187;28;19936;-81
2022/11/15 05:30:42;;;;;;;;;;;;;;;-2.83;58.09;99691.72;5028549;28;19940;-82
2022/11/15 05:33:27;;;;;;;;;;;;;;;-2.81;57.96;99705.63;5030720;28;20000;-82
2022/11/15 05:36:14;;;;;;;;;;;;;;;-2.81;58.07;99700.34;5031648;28;19935;-82
2022/11/15 05:39:01;;;;;;;;;;;;;;;-2.74;58.13;99697.94;5032916;28;20391;-81
2022/11/15 05:41:50;;;;;;;;;;;;;;;-2.72;58.17;99682.78;5032938;28;19929;-80
2022/11/15 05:44:36;;;;;;;;;;;;;;;-2.72;58.26;99685.44;5032818;28;19961;-82
2022/11/15 05:47:24;;;;;;;;;;;;;;;-2.75;57.87;99681.25;5034759;28;19961;-81
2022/11/15 05:50:11;;;;;;;;;;;;;;;-2.72;57.89;99677.50;5017880;28;19929;-80
2022/11/15 05:52:57;;;;;;;;;;;;;;;-2.70;57.79;99676.38;5032700;28;20095;-79
2022/11/15 05:55:48;;;;;;;;;;;;;;;-2.62;57.80;99667.72;5032294;28;19979;-81
2022/11/15 05:58:34;;;;;;;;;;;;;;;-2.57;57.39;99676.06;5032975;28;19929;-82
2022/11/15 06:01:20;;;;;;;;;;;;;;;-2.51;57.43;99667.53;5033648;28;19948;-81
2022/11/15 06:04:05;;;;;;;;;;;;;;;-2.42;57.42;99674.63;5052383;28;20300;-81
2022/11/15 06:06:51;;;;;;;;;;;;;;;-2.37;57.04;99670.72;5052355;28;20019;-80
2022/11/15 06:09:36;;;;;;;;;;;;;;;-2.42;56.89;99660.56;5052280;28;19935;-82
2022/11/15 06:12:22;;;;;;;;;;;;;;;-2.48;56.79;99666.44;5052458;28;20470;-80
2022/11/15 06:15:07;;;;;;;;;;;;;;;-2.49;57.02;99665.59;5037413;28;20029;-82
2022/11/15 06:17:57;;;;;;;;;;;;;;;-2.50;57.09;99666.59;5051925;28;20397;-81
2022/11/15 06:20:42;;;;;;;;;;;;;;;-2.47;57.41;99663.66;5052070;28;19971;-82
2022/11/15 06:23:29;;;;;;;;;;;;;;;-2.46;57.09;99656.53;5052635;28;19940;-81
2022/11/15 06:26:14;;;;;;;;;;;;;;;-2.46;57.22;99661.84;5023337;28;20453;-81
2022/11/15 06:29:00;;;;;;;;;;;;;;;-2.45;57.04;99663.50;5052045;28;19929;-81
2022/11/15 06:31:45;;;;;;;;;;;;;;;-2.59;57.09;99646.28;5036848;28;19928;-81
2022/11/15 06:34:31;;;;;;;;;;;;;;;-2.62;57.31;99652.69;5037069;28;20417;-81
2022/11/15 06:37:16;;;;;;;;;;;;;;;-2.66;57.74;99640.78;5012409;28;19929;-83
2022/11/15 06:40:01;;;;;;;;;;;;;;;-2.58;57.88;99652.41;4993494;28;19929;-82
2022/11/15 06:42:47;;;;;;;;;;;;;;;-2.59;57.76;99643.66;5025729;28;20060;-83
2022/11/15 06:45:32;;;;;;;;;;;;;;;-2.57;57.68;99646.16;5025322;28;20414;-82
2022/11/15 06:48:18;;;;;;;;;;;;;;;-2.56;57.92;99642.53;5027933;28;19929;-82
2022/11/15 06:51:04;;;;;;;;;;;;;;;-2.51;57.73;99641.13;5030288;28;19959;-82
2022/11/15 06:53:49;;;;;;;;;;;;;;;-2.48;57.63;99632.06;5013698;28;19929;-83
2022/11/15 06:56:34;;;;;;;;;;;;;;;-2.46;57.68;99635.41;5031842;28;19936;-82
2022/11/15 06:59:19;;;;;;;;;;;;;;;-2.47;57.90;99628.47;5030800;28;19936;-82
2022/11/15 07:02:05;;;;;;;;;;;;;;;-2.45;57.83;99622.03;5005040;28;20311;-84
2022/11/15 07:04:50;;;;;;;;;;;;;;;-2.42;57.93;99624.38;5027746;28;19944;-84
2022/11/15 07:07:36;;;;;;;;;;;;;;;-2.30;57.72;99611.81;5027160;28;20024;-82
2022/11/15 07:10:23;;;;;;;;;;;;;;;-2.24;57.46;99616.50;5037165;28;19928;-84
2022/11/15 07:13:09;;;;;;;;;;;;;;;-2.17;57.16;99623.88;5037504;28;19936;-84
2022/11/15 07:15:57;;;;;;;;;;;;;;;-2.21;56.74;99605.63;5029386;28;19937;-84
2022/11/15 07:18:42;;;;;;;;;;;;;;;-2.13;57.00;99607.53;5020986;28;19975;-84
2022/11/15 07:21:28;;;;;;;;;;;;;;;-2.06;56.95;99608.63;5030964;28;19940;-83
2022/11/15 07:24:14;;;;;;;;;;;;;;;-2.10;56.47;99616.97;5031844;28;20071;-83
2022/11/15 07:26:59;;;;;;;;;;;;;;;-2.22;56.87;99617.19;5032163;28;19929;-85
2022/11/15 07:29:45;;;;;;;;;;;;;;;-2.15;57.11;99606.03;5036286;28;20391;-83
2022/11/15 07:32:30;;;;;;;;;;;;;;;-2.08;57.06;99607.09;5036579;28;19929;-85
2022/11/15 07:35:16;;;;;;;;;;;;;;;-2.08;56.91;99607.91;5035771;28;19999;-83
2022/11/15 07:38:02;;;;;;;;;;;;;;;-2.04;56.99;99608.47;5037948;28;19939;-84
2022/11/15 07:40:48;;;;;;;;;;;;;;;-2.10;56.69;99598.47;5035968;28;20630;-83
2022/11/15 07:43:35;;;;;;;;;;;;;;;-2.03;56.76;99588.97;5021568;28;19939;-84
2022/11/15 07:46:24;;;;;;;;;;;;;;;-1.98;56.59;99584.06;5033137;28;19929;-84
2022/11/15 07:49:11;;;;;;;;;;;;;;;-1.93;56.69;99584.44;5023228;28;19929;-83
2022/11/15 07:51:56;;;;;;;;;;;;;;;-1.78;56.68;99576.81;5020472;28;19930;-84
2022/11/15 07:54:42;;;;;;;;;;;;;;;-1.79;56.73;99573.34;5002902;28;19960;-85
2022/11/15 07:57:29;;;;;;;;;;;;;;;-1.77;56.50;99573.22;5031075;28;20387;-85
2022/11/15 08:00:16;;;;;;;;;;;;;;;-1.83;56.47;99571.16;5016436;28;20391;-84
2022/11/15 08:03:03;;;;;;;;;;;;;;;-1.92;56.87;99570.25;5030948;28;19936;-83
2022/11/15 08:05:52;;;;;;;;;;;;;;;-1.93;56.93;99563.28;5012892;28;19929;-83
2022/11/15 08:08:37;;;;;;;;;;;;;;;-1.88;56.93;99561.00;5030768;28;20410;-84
2022/11/15 08:11:23;;;;;;;;;;;;;;;-1.71;57.00;99555.88;5030356;28;19936;-84
2022/11/15 08:14:08;;;;;;;;;;;;;;;-1.57;56.65;99553.53;5031040;28;19937;-87
2022/11/15 08:16:56;;;;;;;;;;;;;;;-1.52;56.36;99542.47;5030647;28;19929;-87
2022/11/15 08:19:42;;;;;;;;;;;;;;;-1.54;56.35;99550.56;5033826;28;19986;-85
2022/11/15 08:22:29;;;;;;;;;;;;;;;-1.64;56.62;99547.19;5029951;28;19933;-83
2022/11/15 08:25:15;;;;;;;;;;;;;;;-1.66;56.65;99545.66;5034022;28;19929;-82
2022/11/15 08:28:05;;;;;;;;;;;;;;;-1.54;56.38;99545.28;5016387;28;20034;-87
2022/11/15 08:30:51;;;;;;;;;;;;;;;-1.59;56.49;99544.91;5009706;28;19936;-84
2022/11/15 08:33:36;;;;;;;;;;;;;;;-1.61;56.82;99533.63;5028738;28;19964;-84
2022/11/15 08:36:21;;;;;;;;;;;;;;;-1.52;56.53;99529.22;5000159;28;20027;-82
2022/11/15 08:39:09;;;;;;;;;;;;;;;-1.46;56.71;99533.91;5034031;28;19936;-84
2022/11/15 08:41:54;;;;;;;;;;;;;;;-1.49;56.35;99533.38;5019326;28;20288;-83
2022/11/15 08:44:40;;;;;;;;;;;;;;;-1.59;56.42;99528.19;5033978;28;19940;-84
2022/11/15 08:47:26;;;;;;;;;;;;;;;-1.56;56.28;99530.53;5034789;28;20339;-84
2022/11/15 08:50:11;;;;;;;;;;;;;;;-1.62;56.21;99517.91;5026155;28;20410;-84
2022/11/15 08:52:57;;;;;;;;;;;;;;;-1.67;56.68;99526.31;5029143;28;19929;-84
2022/11/15 08:55:43;;;;;;;;;;;;;;;-1.58;56.81;99524.56;5034059;28;19945;-85
2022/11/15 08:58:28;;;;;;;;;;;;;;;-1.45;56.85;99522.31;5026661;28;19929;-84
2022/11/15 09:01:17;;;;;;;;;;;;;;;-1.43;56.57;99523.00;5017690;28;19936;-82
2022/11/15 09:04:03;;;;;;;;;;;;;;;-1.57;56.88;99511.19;5034086;28;20311;-83
2022/11/15 09:06:49;;;;;;;;;;;;;;;-1.63;57.03;99521.53;5018299;28;19979;-83
2022/11/15 09:09:34;;;;;;;;;;;;;;;-1.57;57.14;99515.63;5033854;28;19951;-84
2022/11/15 09:12:21;;;;;;;;;;;;;;;-1.58;56.75;99521.91;5016349;28;20448;-83
2022/11/15 09:15:06;;;;;;;;;;;;;;;-1.56;56.86;99518.13;5033709;28;19929;-83
2022/11/15 09:17:51;;;;;;;;;;;;;;;-1.65;57.02;99508.44;5018891;28;19929;-83
2022/11/15 09:20:37;;;;;;;;;;;;;;;-1.69;57.25;99506.28;5033844;28;19940;-85
2022/11/15 09:23:23;;;;;;;;;;;;;;;-1.70;57.19;99504.59;5005852;28;20320;-85
2022/11/15 09:26:08;;;;;;;;;;;;;;;-1.72;57.50;99502.13;5034153;28;19929;-85
2022/11/15 09:28:55;;;;;;;;;;;;;;;-1.68;57.32;99500.00;5033412;28;19936;-85
2022/11/15 09:31:40;;;;;;;;;;;;;;;-1.72;57.12;99490.69;5033450;28;19974;-84
2022/11/15 09:34:26;;;;;;;;;;;;;;;-1.72;57.44;99495.97;5033633;28;19936;-84
2022/11/15 09:37:12;;;;;;;;;;;;;;;-1.73;57.31;99489.88;5030119;28;20309;-83
2022/11/15 09:39:57;;;;;;;;;;;;;;;-1.67;57.34;99486.63;5011515;28;19975;-84
2022/11/15 09:42:51;;;;;;;;;;;;;;;-1.69;57.30;99485.13;5035018;28;20418;-86
2022/11/15 09:45:51;;;;;;;;;;;;;;;-1.71;57.31;99481.78;5013420;28;20312;-83
2022/11/15 09:48:36;;;;;;;;;;;;;;;-1.75;57.39;99468.88;5026855;28;19935;-86
2022/11/15 09:51:31;;;;;;;;;;;;;;;-1.73;57.53;99475.81;5030462;28;19929;-85
2022/11/15 09:54:03;;;;;;;;;;;;;;;-1.72;57.67;99467.72;5027722;28;19929;-84
2022/11/15 09:56:50;;;;;;;;;;;;;;;-1.77;57.57;99462.88;5029393;28;20276;-83
2022/11/15 09:59:23;;;;;;;;;;;;;;;-1.71;57.86;99471.19;5026930;28;19928;-83
2022/11/15 10:01:50;;;;;;;;;;;;;;;-1.71;57.65;99465.91;5026643;28;19934;-83
2022/11/15 10:04:17;;;;;;;;;;;;;;;-1.71;57.50;99460.59;5020091;28;19930;-83
2022/11/15 10:06:46;;;;;;;;;;;;;;;-1.69;57.80;99456.00;5024167;28;20020;-84
2022/11/15 10:09:16;;;;;;;;;;;;;;;-1.68;57.83;99442.59;5015449;28;19933;-85
2022/11/15 10:11:49;;;;;;;;;;;;;;;-1.59;57.86;99448.78;5017283;28;20003;-83
2022/11/15 10:14:20;;;;;;;;;;;;;;;-1.53;57.63;99448.16;5010006;28;19983;-83
2022/11/15 10:16:56;;;;;;;;;;;;;;;-1.48;57.81;99445.03;5029042;28;19941;-86
2022/11/15 10:19:41;;;;;;;;;;;;;;;-1.43;57.62;99442.75;4676794;28;10000877;-86
2022/11/15 10:22:14;;;;;;;;;;;;;;;-1.42;57.68;99439.09;5018805;28;19952;-84
2022/11/15 10:24:42;;;;;;;;;;;;;;;-1.48;57.63;99435.28;4999652;28;19934;-85
2022/11/15 10:27:11;;;;;;;;;;;;;;;-1.47;57.84;99442.22;5017157;28;19940;-85
2022/11/15 10:29:42;;;;;;;;;;;;;;;-1.46;57.70;99437.78;5005367;28;20400;-83
2022/11/15 10:32:10;;;;;;;;;;;;;;;-1.37;57.81;99439.47;5009047;28;19933;-84
2022/11/15 10:34:37;;;;;;;;;;;;;;;-1.43;57.72;99437.47;5009917;28;19930;-84
2022/11/15 10:37:04;;;;;;;;;;;;;;;-1.43;57.48;99430.34;5018907;28;20394;-85
2022/11/15 10:39:35;;;;;;;;;;;;;;;-1.44;57.26;99423.41;5006006;28;19983;-84
2022/11/15 10:42:35;;;;;;;;;;;;;;;-1.41;57.07;99414.31;4976671;28;20414;-85
2022/11/15 10:45:02;;;;;;;;;;;;;;;-1.45;56.84;99413.78;5015994;28;19934;-85
2022/11/15 10:47:34;;;;;;;;;;;;;;;-1.40;57.35;99408.00;4981232;28;19960;-84
2022/11/15 10:50:07;;;;;;;;;;;;;;;-1.35;57.39;99403.91;5023204;28;20199;-85
2022/11/15 10:52:35;;;;;;;;;;;;;;;-1.32;57.73;99397.47;5004931;28;19952;-85
2022/11/15 10:55:11;;;;;;;;;;;;;;;-1.32;57.77;99392.16;5002445;28;20444;-86
2022/11/15 10:57:39;;;;;;;;;;;;;;;-1.34;57.86;99388.88;5048722;28;20059;-85
2022/11/15 11:00:07;;;;;;;;;;;;;;;-1.39;57.63;99386.69;5017832;28;19976;-84
2022/11/15 11:02:38;;;;;;;;;;;;;;;-1.41;57.65;99379.91;5022872;28;19929;-84
2022/11/15 11:05:06;;;;;;;;;;;;;;;-1.51;57.41;99382.66;5004523;28;19937;-84
2022/11/15 11:07:35;;;;;;;;;;;;;;;-1.49;57.78;99383.34;5018422;28;20546;-83
2022/11/15 11:10:02;;;;;;;;;;;;;;;-1.47;57.55;99381.34;5034783;28;19936;-83
2022/11/15 11:12:39;;;;;;;;;;;;;;;-1.45;57.53;99378.53;5006331;28;20303;-83
2022/11/15 11:15:09;;;;;;;;;;;;;;;-1.41;57.57;99371.94;5023077;28;19991;-84
2022/11/15 11:17:46;;;;;;;;;;;;;;;-1.41;57.68;99374.59;4997983;28;20012;-84
2022/11/15 11:20:15;;;;;;;;;;;;;;;-1.36;57.56;99373.13;5030048;28;19964;-84
2022/11/15 11:22:48;;;;;;;;;;;;;;;-1.35;57.28;99373.94;5045681;28;20456;-84
2022/11/15 11:25:35;;;;;;;;;;;;;;;-1.38;57.24;99380.41;5018722;28;20419;-84
2022/11/15 11:28:13;;;;;;;;;;;;;;;-1.47;57.58;99376.03;4997250;28;19964;-84
2022/11/15 11:30:54;;;;;;;;;;;;;;;-1.61;58.24;99371.34;4997122;28;19955;-84
2022/11/15 11:33:22;;;;;;;;;;;;;;;-1.70;58.49;99377.56;5017865;28;20359;-83
2022/11/15 11:35:57;;;;;;;;;;;;;;;-1.81;58.86;99387.44;5003140;28;19933;-84
2022/11/15 11:38:24;;;;;;;;;;;;;;;-1.88;59.82;99373.16;5038459;28;19928;-83
2022/11/15 11:41:00;;;;;;;;;;;;;;;-1.89;60.10;99366.22;4998959;28;19995;-85
2022/11/15 11:43:35;;;;;;;;;;;;;;;-1.85;60.22;99372.88;5033142;28;19929;-85
2022/11/15 11:46:08;;;;;;;;;;;;;;;-1.83;60.58;99357.66;5024888;28;19933;-84
2022/11/15 11:49:08;;;;;;;;;;;;;;;-1.89;61.50;99370.69;5013838;28;19936;-82
2022/11/15 11:52:13;;;;;;;;;;;;;;;-2.14;64.17;99374.97;4943832;29;20133;-87
2022/11/15 11:54:46;;;;;;;;;;;;;;;-2.33;65.85;99368.91;4898645;29;19942;-83
2022/11/15 11:57:15;;;;;;;;;;;;;;;-2.38;66.37;99362.38;4884174;29;20017;-86
2022/11/15 11:59:48;;;;;;;;;;;;;;;-2.35;67.04;99368.22;4883058;29;19931;-86
2022/11/15 12:02:17;;;;;;;;;;;;;;;-2.35;67.58;99359.47;4869840;29;20400;-87
2022/11/15 12:04:47;;;;;;;;;;;;;;;-2.40;68.62;99359.91;4900766;29;19931;-86
2022/11/15 12:07:16;;;;;;;;;;;;;;;-2.38;68.74;99349.16;4897569;29;19938;-86
2022/11/15 12:09:53;;;;;;;;;;;;;;;-2.38;68.85;99351.81;4869254;29;20027;-85
2022/11/15 12:12:32;;;;;;;;;;;;;;;-2.43;69.76;99342.53;4882770;29;20041;-85
2022/11/15 12:15:04;;;;;;;;;;;;;;;-2.42;69.53;99343.38;4896340;29;19931;-85
2022/11/15 12:17:31;;;;;;;;;;;;;;;-2.40;70.27;99342.22;4883005;29;19931;-86
2022/11/15 12:20:03;;;;;;;;;;;;;;;-2.41;70.49;99339.72;4866313;29;19931;-87
2022/11/15 12:22:59;;;;;;;;;;;;;;;-2.58;71.68;99336.13;4891229;29;19935;-86
2022/11/15 12:25:29;;;;;;;;;;;;;;;-2.74;72.51;99335.97;4836122;29;20359;-85
2022/11/15 12:27:58;;;;;;;;;;;;;;;-2.69;72.89;99329.25;4918238;29;19982;-85
2022/11/15 12:30:38;;;;;;;;;;;;;;;-2.72;73.33;99329.56;4920957;29;19938;-87
2022/11/15 12:33:19;;;;;;;;;;;;;;;-2.65;73.48;99322.69;4922367;29;20390;-83
2022/11/15 12:35:56;;;;;;;;;;;;;;;-2.62;73.93;99319.75;4931174;29;19930;-83
2022/11/15 12:38:42;;;;;;;;;;;;;;;-2.64;74.56;99321.69;4914113;29;20065;-85
2022/11/15 12:41:18;;;;;;;;;;;;;;;-2.71;74.67;99309.25;4926153;29;19930;-84
2022/11/15 12:43:46;;;;;;;;;;;;;;;-2.87;75.72;99289.63;4921951;29;20002;-86
2022/11/15 12:46:28;;;;;;;;;;;;;;;-2.98;75.88;99297.78;4921792;29;19937;-83
2022/11/15 12:48:59;;;;;;;;;;;;;;;-3.06;76.61;99281.88;4933740;29;19930;-86
2022/11/15 12:51:45;;;;;;;;;;;;;;;-3.03;76.75;99289.50;4922287;29;20375;-84
2022/11/15 12:54:22;;;;;;;;;;;;;;;-3.00;76.93;99289.19;4937473;29;20345;-84
2022/11/15 12:57:07;;;;;;;;;;;;;;;-2.97;76.80;99288.06;4918722;29;20350;-84
2022/11/15 13:00:01;;;;;;;;;;;;;;;-3.02;76.84;99277.13;4932730;29;20397;-84
2022/11/15 13:02:45;;;;;;;;;;;;;;;-3.12;77.50;99279.81;4972617;28;20384;-85
2022/11/15 13:05:15;;;;;;;;;;;;;;;-3.16;78.36;99276.66;5006836;28;20396;-86
2022/11/15 13:07:44;;;;;;;;;;;;;;;-3.17;78.90;99269.69;5001621;28;20690;-85
2022/11/15 13:10:12;;;;;;;;;;;;;;;-3.15;79.08;99267.75;5005302;28;20397;-85
2022/11/15 13:12:44;;;;;;;;;;;;;;;-3.12;79.32;99259.53;5029045;28;20396;-84
2022/11/15 13:15:11;;;;;;;;;;;;;;;-3.15;79.70;99262.47;5002837;28;19957;-85
2022/11/15 13:17:40;;;;;;;;;;;;;;;-3.13;79.58;99259.69;5024291;28;19936;-83
2022/11/15 13:20:07;;;;;;;;;;;;;;;-3.13;79.66;99257.06;5011807;28;20020;-83
2022/11/15 13:23:00;;;;;;;;;;;;;;;-3.14;79.94;99255.38;5030782;28;20353;-84
2022/11/15 13:25:38;;;;;;;;;;;;;;;-3.23;80.74;99254.47;5014224;28;20526;-84
2022/11/15 13:28:14;;;;;;;;;;;;;;;-3.26;80.94;99246.88;5020758;28;19929;-84
2022/11/15 13:30:49;;;;;;;;;;;;;;;-3.29;81.30;99239.25;5029841;28;19969;-82
2022/11/15 13:33:17;;;;;;;;;;;;;;;-3.28;81.65;99248.81;5029466;28;19983;-82
2022/11/15 13:35:48;;;;;;;;;;;;;;;-3.20;81.93;99248.88;5012067;28;19940;-82
2022/11/15 13:38:35;;;;;;;;;;;;;;;-3.15;81.77;99246.63;5023195;28;20386;-82
2022/11/15 13:41:31;;;;;;;;;;;;;;;-3.09;81.82;99238.13;5013362;28;19944;-83
2022/11/15 13:43:59;;;;;;;;;;;;;;;-3.06;81.84;99235.16;4917786;29;19931;-84
2022/11/15 13:46:27;;;;;;;;;;;;;;;-3.05;81.81;99236.81;4950533;28;19930;-83
2022/11/15 13:48:55;;;;;;;;;;;;;;;-3.01;81.96;99231.22;4935266;29;20034;-83
2022/11/15 13:51:24;;;;;;;;;;;;;;;-3.08;82.28;99225.75;4946872;28;19977;-83
2022/11/15 13:54:07;;;;;;;;;;;;;;;-3.10;82.68;99225.88;4949534;28;19961;-83
2022/11/15 13:56:34;;;;;;;;;;;;;;;-3.08;82.87;99213.38;4961377;28;19930;-84
2022/11/15 13:59:08;;;;;;;;;;;;;;;-3.03;83.00;99214.72;4948961;28;19934;-83
2022/11/15 14:01:37;;;;;;;;;;;;;;;-2.99;83.00;99205.50;4954502;28;19930;-84
2022/11/15 14:04:04;;;;;;;;;;;;;;;-2.97;83.20;99209.66;4955578;28;20377;-83
2022/11/15 14:06:49;;;;;;;;;;;;;;;-3.00;83.06;99202.03;4972475;28;20017;-82
2022/11/15 14:09:31;;;;;;;;;;;;;;;-3.03;83.24;99197.06;4956756;28;19930;-83
2022/11/15 14:11:58;;;;;;;;;;;;;;;-3.03;83.38;99199.72;4972705;28;20409;-83